Time;durP1;ratioP1;P1;durP2;ratioP2;P2;SDS_P1;SDS_P2;PMS_P1;PMS_P2;Temp;Humidity;BMP_temperature;BMP_pressure;BME280_temperature;BME280_humidity;BME280_pressure;Samples;Min_cycle;Max_cycle;Signal;HPM_P1;HPM_P2
2021/03/31 00:01:58;;;;;;;;;;;;;;;16.97;61.51;102295.06;5047687;28;1471;-73
2021/03/31 00:04:23;;;;;;;;;;;;;;;16.98;61.22;102287.91;5030919;28;1632;-58
2021/03/31 00:06:49;;;;;;;;;;;;;;;16.95;61.15;102288.94;5029699;28;1532;-58
2021/03/31 00:09:14;;;;;;;;;;;;;;;16.96;61.06;102290.66;5032160;28;1329;-68
2021/03/31 00:11:40;;;;;;;;;;;;;;;16.94;60.42;102287.22;5034634;28;1663;-66
2021/03/31 00:14:05;;;;;;;;;;;;;;;16.96;60.95;102292.47;5031928;28;1477;-73
2021/03/31 00:16:30;;;;;;;;;;;;;;;16.97;60.44;102286.16;5031932;28;1903;-58
2021/03/31 00:18:56;;;;;;;;;;;;;;;16.96;61.25;102271.97;5031442;28;1375;-58
2021/03/31 00:21:21;;;;;;;;;;;;;;;16.94;61.90;102289.03;5033044;28;1639;-58
2021/03/31 00:23:47;;;;;;;;;;;;;;;16.93;61.98;102282.84;5027075;28;1262;-73
2021/03/31 00:26:12;;;;;;;;;;;;;;;16.95;60.57;102288.06;5033721;28;1628;-74
2021/03/31 00:28:38;;;;;;;;;;;;;;;16.94;60.57;102292.56;5032663;28;1576;-73
2021/03/31 00:31:03;;;;;;;;;;;;;;;16.92;62.02;102275.75;5031270;28;1307;-74
2021/03/31 00:33:29;;;;;;;;;;;;;;;16.92;62.00;102278.41;5031275;28;1516;-73
2021/03/31 00:35:54;;;;;;;;;;;;;;;16.94;61.99;102283.69;5033756;28;1893;-74
2021/03/31 00:38:19;;;;;;;;;;;;;;;16.91;61.29;102282.06;5032868;28;1311;-73
2021/03/31 00:40:49;;;;;;;;;;;;;;;16.88;61.42;102277.72;5032834;28;1481;-73
2021/03/31 00:43:14;;;;;;;;;;;;;;;16.91;62.24;102287.41;5032016;28;1529;-58
2021/03/31 00:45:40;;;;;;;;;;;;;;;16.90;61.71;102270.47;5032914;28;1553;-58
2021/03/31 00:48:06;;;;;;;;;;;;;;;16.90;61.67;102275.81;5032164;28;1283;-58
2021/03/31 00:50:31;;;;;;;;;;;;;;;16.91;61.72;102282.06;5031009;28;1207;-58
2021/03/31 00:52:58;;;;;;;;;;;;;;;16.94;61.70;102286.34;5031043;28;1568;-58
2021/03/31 00:55:25;;;;;;;;;;;;;;;16.93;61.08;102285.50;5032671;28;1951;-58
2021/03/31 00:57:51;;;;;;;;;;;;;;;16.92;62.32;102278.41;5033989;28;1631;-58
2021/03/31 01:00:17;;;;;;;;;;;;;;;16.93;61.90;102272.16;5032601;28;1358;-73
2021/03/31 01:02:42;;;;;;;;;;;;;;;16.88;61.18;102277.72;5028507;28;1618;-58
2021/03/31 01:05:09;;;;;;;;;;;;;;;16.89;62.42;102278.56;5029010;28;1584;-58
2021/03/31 01:07:34;;;;;;;;;;;;;;;16.88;61.23;102271.53;5031866;28;1342;-58
2021/03/31 01:09:59;;;;;;;;;;;;;;;16.90;61.93;102274.97;5030067;28;1312;-58
2021/03/31 01:12:44;;;;;;;;;;;;;;;16.87;62.20;102281.34;5033335;28;1612;-58
2021/03/31 01:15:11;;;;;;;;;;;;;;;16.97;62.53;102280.81;5031088;28;1914;-58
2021/03/31 01:17:43;;;;;;;;;;;;;;;16.94;61.76;102281.88;5032248;28;1490;-59
2021/03/31 01:20:08;;;;;;;;;;;;;;;16.93;62.28;102269.47;5029853;28;1553;-65
2021/03/31 01:22:46;;;;;;;;;;;;;;;16.89;62.57;102274.13;5027431;28;1287;-65
2021/03/31 01:25:14;;;;;;;;;;;;;;;16.89;63.21;102279.47;5031508;28;1434;-59
2021/03/31 01:27:58;;;;;;;;;;;;;;;16.87;62.27;102285.81;5033004;28;1358;-65
2021/03/31 01:30:38;;;;;;;;;;;;;;;16.86;63.28;102276.94;5032552;28;1402;-60
2021/03/31 01:33:32;;;;;;;;;;;;;;;16.87;63.23;102288.47;5033276;28;1294;-64
2021/03/31 01:35:58;;;;;;;;;;;;;;;16.85;62.51;102272.56;5020214;28;1953;-64
2021/03/31 01:38:25;;;;;;;;;;;;;;;16.85;63.41;102283.25;5037451;28;1532;-65
2021/03/31 01:40:52;;;;;;;;;;;;;;;16.84;63.29;102284.19;5033423;28;1576;-59
2021/03/31 01:43:19;;;;;;;;;;;;;;;16.88;62.21;102282.22;5036601;28;1450;-65
2021/03/31 01:45:50;;;;;;;;;;;;;;;16.85;63.72;102293.94;5032474;28;1514;-59
2021/03/31 01:48:17;;;;;;;;;;;;;;;16.86;62.78;102273.41;5036639;28;1686;-65
2021/03/31 01:50:45;;;;;;;;;;;;;;;16.85;62.27;102299.28;5034687;28;1326;-64
2021/03/31 01:53:11;;;;;;;;;;;;;;;16.84;63.80;102278.84;5031658;28;1724;-59
2021/03/31 01:55:37;;;;;;;;;;;;;;;16.85;63.34;102290.38;5035895;28;1886;-59
2021/03/31 01:58:03;;;;;;;;;;;;;;;16.84;63.46;102277.97;5030445;28;1671;-64
2021/03/31 02:02:56;;;;;;;;;;;;;;;16.82;62.47;102291.41;4995157;28;2767;-46
2021/03/31 02:05:22;;;;;;;;;;;;;;;16.82;63.00;102291.41;4995628;28;1875;-46
2021/03/31 02:07:48;;;;;;;;;;;;;;;16.83;62.56;102295.84;4996359;28;1929;-46
2021/03/31 02:10:14;;;;;;;;;;;;;;;16.83;62.52;102294.94;5015486;22;3651;-64
2021/03/31 02:12:40;;;;;;;;;;;;;;;16.80;63.70;102285.28;5006782;28;1643;-60
2021/03/31 02:15:09;;;;;;;;;;;;;;;16.81;64.21;102297.72;5012079;28;1981;-60
2021/03/31 02:17:36;;;;;;;;;;;;;;;16.82;63.41;102290.56;5012184;28;1343;-59
2021/03/31 02:20:03;;;;;;;;;;;;;;;16.80;64.30;102290.59;5011469;28;1357;-60
2021/03/31 02:22:29;;;;;;;;;;;;;;;16.81;62.47;102281.69;5009702;28;1561;-70
2021/03/31 02:24:55;;;;;;;;;;;;;;;16.80;64.20;102279.06;5012887;28;1343;-70
2021/03/31 02:27:21;;;;;;;;;;;;;;;16.82;63.15;102277.22;5015275;28;1565;-70
2021/03/31 02:29:47;;;;;;;;;;;;;;;16.75;63.13;102275.78;4999706;28;1733;-58
2021/03/31 02:32:14;;;;;;;;;;;;;;;16.76;63.99;102273.03;5011648;28;1465;-59
2021/03/31 02:34:40;;;;;;;;;;;;;;;16.81;63.14;102267.41;5009820;28;1878;-70
2021/03/31 02:37:06;;;;;;;;;;;;;;;16.77;64.53;102265.88;5013671;28;1463;-59
2021/03/31 02:39:35;;;;;;;;;;;;;;;16.77;63.99;102268.53;5011805;28;1555;-70
2021/03/31 02:42:01;;;;;;;;;;;;;;;16.75;63.39;102286.47;5015315;28;1446;-70
2021/03/31 02:44:28;;;;;;;;;;;;;;;16.74;63.59;102272.25;5008464;28;1435;-70
2021/03/31 02:46:55;;;;;;;;;;;;;;;16.73;64.25;102275.00;5010675;28;1335;-70
2021/03/31 02:49:20;;;;;;;;;;;;;;;16.72;63.43;102270.63;5013264;28;1442;-71
2021/03/31 02:51:47;;;;;;;;;;;;;;;16.74;63.38;102269.56;5013516;28;1486;-58
2021/03/31 02:54:12;;;;;;;;;;;;;;;16.71;64.76;102269.72;5012681;28;1356;-58
2021/03/31 02:56:41;;;;;;;;;;;;;;;16.75;64.12;102298.03;5014433;28;1886;-58
2021/03/31 02:59:07;;;;;;;;;;;;;;;16.72;64.05;102275.97;5012959;28;1493;-70
2021/03/31 03:01:32;;;;;;;;;;;;;;;16.71;63.82;102269.72;5011434;28;1658;-70
2021/03/31 03:03:58;;;;;;;;;;;;;;;16.73;63.93;102277.66;5011332;28;1481;-58
2021/03/31 03:06:24;;;;;;;;;;;;;;;16.72;64.50;102294.66;5013462;28;1500;-59
2021/03/31 03:08:50;;;;;;;;;;;;;;;16.72;63.76;102286.66;5011938;28;1335;-70
2021/03/31 03:11:16;;;;;;;;;;;;;;;16.73;63.37;102288.34;5028206;28;1505;-58
2021/03/31 03:13:42;;;;;;;;;;;;;;;16.72;63.45;102281.31;5010089;28;1454;-58
2021/03/31 03:16:08;;;;;;;;;;;;;;;16.71;63.37;102301.78;5011495;28;1979;-58
2021/03/31 03:18:34;;;;;;;;;;;;;;;16.73;64.00;102291.03;5011302;28;1453;-69
2021/03/31 03:21:00;;;;;;;;;;;;;;;16.69;63.41;102293.88;5012390;28;1418;-58
2021/03/31 03:23:25;;;;;;;;;;;;;;;16.74;64.24;102303.44;5012598;28;1505;-68
2021/03/31 03:25:51;;;;;;;;;;;;;;;16.72;63.14;102294.66;5012589;28;1317;-67
2021/03/31 03:28:21;;;;;;;;;;;;;;;16.69;63.49;102287.66;5012417;28;1627;-58
2021/03/31 03:30:47;;;;;;;;;;;;;;;16.70;64.57;102300.94;5008113;28;1279;-58
2021/03/31 03:33:13;;;;;;;;;;;;;;;16.68;63.84;102292.13;5011467;28;1458;-68
2021/03/31 03:35:38;;;;;;;;;;;;;;;16.67;64.34;102294.88;5013368;28;1977;-67
2021/03/31 03:38:03;;;;;;;;;;;;;;;16.67;64.48;102289.53;5008030;28;1653;-59
2021/03/31 03:40:29;;;;;;;;;;;;;;;16.70;64.29;102300.94;5010389;28;1569;-68
2021/03/31 03:42:54;;;;;;;;;;;;;;;16.68;63.88;102300.16;5013204;28;1358;-68
2021/03/31 03:45:23;;;;;;;;;;;;;;;16.66;63.88;102304.72;5009184;28;1307;-58
2021/03/31 03:47:49;;;;;;;;;;;;;;;16.68;62.88;102296.63;5011931;28;1372;-67
2021/03/31 03:50:14;;;;;;;;;;;;;;;16.66;63.81;102303.84;5009624;28;1430;-58
2021/03/31 03:52:42;;;;;;;;;;;;;;;16.67;62.67;102298.44;5007862;28;1330;-59
2021/03/31 03:55:07;;;;;;;;;;;;;;;16.67;63.58;102290.44;5012028;28;1890;-59
2021/03/31 03:57:33;;;;;;;;;;;;;;;16.70;63.43;102297.41;5014179;28;1414;-59
2021/03/31 03:59:59;;;;;;;;;;;;;;;16.72;63.82;102294.66;5008788;28;1643;-66
2021/03/31 04:02:24;;;;;;;;;;;;;;;16.70;63.18;102290.25;5008169;28;1457;-65
2021/03/31 04:04:49;;;;;;;;;;;;;;;16.68;62.97;102292.13;5011629;28;1469;-66
2021/03/31 04:07:15;;;;;;;;;;;;;;;16.70;63.32;102292.91;5009321;28;1434;-66
2021/03/31 04:09:42;;;;;;;;;;;;;;;16.68;62.68;102293.97;5010682;28;1292;-66
2021/03/31 04:12:08;;;;;;;;;;;;;;;16.69;62.71;102296.53;5026576;28;1462;-59
2021/03/31 04:14:36;;;;;;;;;;;;;;;16.67;63.75;102295.78;5007593;28;1575;-67
2021/03/31 04:17:02;;;;;;;;;;;;;;;16.69;63.94;102296.53;5010482;28;1980;-67
2021/03/31 04:19:28;;;;;;;;;;;;;;;16.73;63.76;102296.38;5009500;28;1512;-59
2021/03/31 04:21:53;;;;;;;;;;;;;;;16.68;63.37;102297.47;5010451;28;1486;-60
2021/03/31 04:24:18;;;;;;;;;;;;;;;16.73;63.06;102289.22;5010890;28;1588;-59
2021/03/31 04:26:45;;;;;;;;;;;;;;;16.75;63.21;102291.81;5013442;28;1271;-67
2021/03/31 04:29:11;;;;;;;;;;;;;;;16.79;63.40;102294.25;5010603;28;1545;-59
2021/03/31 04:31:37;;;;;;;;;;;;;;;16.83;62.75;102292.28;5010876;28;1359;-66
2021/03/31 04:34:03;;;;;;;;;;;;;;;16.86;63.25;102290.31;5010007;28;1565;-66
2021/03/31 04:36:29;;;;;;;;;;;;;;;16.88;62.86;102280.41;5010147;28;1949;-66
2021/03/31 04:38:54;;;;;;;;;;;;;;;16.89;63.24;102306.19;5007578;28;1318;-59
2021/03/31 04:41:20;;;;;;;;;;;;;;;16.95;62.13;102305.00;5012496;28;1552;-59
2021/03/31 04:43:45;;;;;;;;;;;;;;;17.14;61.10;102307.47;5011489;28;1580;-59
2021/03/31 04:46:10;;;;;;;;;;;;;;;17.59;60.10;102307.66;5010314;28;1570;-68
2021/03/31 04:48:36;;;;;;;;;;;;;;;17.71;59.97;102304.25;5009823;28;1429;-68
2021/03/31 04:51:02;;;;;;;;;;;;;;;17.23;60.67;102304.31;5010706;28;1296;-69
2021/03/31 04:53:28;;;;;;;;;;;;;;;16.99;61.72;102317.22;5012562;28;1477;-66
2021/03/31 04:55:53;;;;;;;;;;;;;;;16.88;62.47;102314.28;5008563;28;1945;-66
2021/03/31 04:58:18;;;;;;;;;;;;;;;16.83;61.96;102319.88;5010896;28;1513;-65
2021/03/31 05:00:44;;;;;;;;;;;;;;;16.85;62.33;102330.47;5010078;28;1390;-65
2021/03/31 05:03:09;;;;;;;;;;;;;;;16.83;63.00;102327.91;5009775;28;1299;-65
2021/03/31 05:05:34;;;;;;;;;;;;;;;16.85;61.93;102322.44;5011464;28;1322;-64
2021/03/31 05:08:00;;;;;;;;;;;;;;;16.93;62.52;102328.25;5004646;28;1479;-60
2021/03/31 05:10:25;;;;;;;;;;;;;;;17.01;62.37;102325.13;5008156;28;1264;-64
2021/03/31 05:12:51;;;;;;;;;;;;;;;17.37;60.66;102324.03;5012109;28;1620;-64
2021/03/31 05:15:17;;;;;;;;;;;;;;;17.41;61.08;102318.44;5011695;28;1985;-60
2021/03/31 05:17:43;;;;;;;;;;;;;;;17.38;60.98;102318.59;5010423;28;1529;-59
2021/03/31 05:20:08;;;;;;;;;;;;;;;17.32;61.50;102313.59;5008761;28;1454;-64
2021/03/31 05:22:33;;;;;;;;;;;;;;;17.30;61.39;102318.19;5010884;28;1606;-64
2021/03/31 05:24:59;;;;;;;;;;;;;;;17.40;60.76;102322.06;5010687;28;1395;-62
2021/03/31 05:27:24;;;;;;;;;;;;;;;17.71;59.51;102325.66;5012091;28;1442;-60
2021/03/31 05:29:50;;;;;;;;;;;;;;;18.32;58.43;102320.31;5008728;28;1699;-59
2021/03/31 05:32:15;;;;;;;;;;;;;;;18.83;57.12;102318.94;5008941;28;1367;-60
2021/03/31 05:34:41;;;;;;;;;;;;;;;19.01;56.29;102316.06;5009905;28;1466;-60
2021/03/31 05:37:06;;;;;;;;;;;;;;;19.01;56.01;102318.75;5006442;28;1951;-59
2021/03/31 05:39:32;;;;;;;;;;;;;;;18.58;57.20;102321.41;5008755;28;1576;-59
2021/03/31 05:41:57;;;;;;;;;;;;;;;18.25;58.83;102315.34;5012312;28;1370;-68
2021/03/31 05:44:22;;;;;;;;;;;;;;;18.14;59.22;102308.91;5009707;28;1605;-70
2021/03/31 05:46:51;;;;;;;;;;;;;;;18.20;58.94;102305.84;5009008;28;1487;-69
2021/03/31 05:49:17;;;;;;;;;;;;;;;18.24;58.70;102318.97;5008219;28;1414;-70
2021/03/31 05:51:42;;;;;;;;;;;;;;;18.22;58.22;102331.59;5011205;28;1568;-72
2021/03/31 05:54:08;;;;;;;;;;;;;;;17.91;58.61;102264.78;5009491;28;1311;-72
2021/03/31 05:56:33;;;;;;;;;;;;;;;18.24;58.88;102313.63;5010008;28;1953;-59
2021/03/31 05:59:05;;;;;;;;;;;;;;;18.19;58.93;102305.00;5008616;28;1741;-59
2021/03/31 06:01:30;;;;;;;;;;;;;;;18.16;58.69;102317.69;5007532;28;1638;-59
2021/03/31 06:03:56;;;;;;;;;;;;;;;18.08;58.54;102323.50;5009582;28;1510;-59
2021/03/31 06:06:22;;;;;;;;;;;;;;;18.07;58.83;102319.97;5023333;28;1685;-72
2021/03/31 06:08:48;;;;;;;;;;;;;;;17.95;58.98;102306.47;5005072;28;1592;-72
2021/03/31 06:11:16;;;;;;;;;;;;;;;17.97;59.51;102326.00;5007699;28;1621;-58
2021/03/31 06:14:01;;;;;;;;;;;;;;;18.03;59.22;102321.13;5004982;28;1696;-72
2021/03/31 06:16:31;;;;;;;;;;;;;;;18.00;59.01;102307.06;5009117;28;2027;-72
2021/03/31 06:18:56;;;;;;;;;;;;;;;17.98;59.21;102311.63;5009333;28;1521;-59
2021/03/31 06:21:22;;;;;;;;;;;;;;;18.02;59.82;102302.47;5009877;28;1613;-59
2021/03/31 06:23:58;;;;;;;;;;;;;;;18.00;59.02;102293.66;5025042;28;1490;-71
2021/03/31 06:26:26;;;;;;;;;;;;;;;18.04;59.66;102304.09;5014692;28;1707;-59
2021/03/31 06:28:59;;;;;;;;;;;;;;;18.04;59.14;102297.88;5009910;28;1633;-60
2021/03/31 06:31:29;;;;;;;;;;;;;;;18.05;59.20;102304.97;5010825;28;1492;-72
2021/03/31 06:33:56;;;;;;;;;;;;;;;18.03;60.16;102294.34;5012583;28;1427;-72
2021/03/31 06:36:32;;;;;;;;;;;;;;;18.04;59.56;102296.06;5003922;28;1870;-72
2021/03/31 06:38:58;;;;;;;;;;;;;;;18.08;59.46;102302.97;5005900;28;1513;-70
2021/03/31 06:43:59;;;;;;;;;;;;;;;18.07;59.79;102300.38;5010946;28;1719;-59
2021/03/31 06:46:31;;;;;;;;;;;;;;;18.11;59.60;102307.28;5009971;28;1447;-68
2021/03/31 06:48:56;;;;;;;;;;;;;;;18.10;59.01;102297.50;5011913;28;1366;-69
2021/03/31 06:51:23;;;;;;;;;;;;;;;18.11;60.08;102285.88;5005137;28;1554;-67
2021/03/31 06:53:48;;;;;;;;;;;;;;;18.13;59.61;102300.00;5007186;28;775;-59
2021/03/31 06:56:14;;;;;;;;;;;;;;;18.13;59.32;102289.31;5011917;28;1957;-68
2021/03/31 06:58:40;;;;;;;;;;;;;;;18.13;59.96;102283.94;5011880;28;1779;-67
2021/03/31 07:01:21;;;;;;;;;;;;;;;18.13;59.37;102289.31;5010214;28;1503;-59
2021/03/31 07:03:47;;;;;;;;;;;;;;;18.12;59.30;102281.38;5005248;28;1405;-66
2021/03/31 07:06:12;;;;;;;;;;;;;;;18.11;59.49;102283.19;5011140;28;1493;-66
2021/03/31 07:08:38;;;;;;;;;;;;;;;18.12;59.44;102279.53;5011005;28;1212;-67
2021/03/31 07:11:03;;;;;;;;;;;;;;;18.15;60.29;102274.00;5014072;28;1145;-59
2021/03/31 07:13:33;;;;;;;;;;;;;;;18.18;60.25;102273.81;5012996;28;1415;-59
2021/03/31 07:16:00;;;;;;;;;;;;;;;18.19;59.41;102285.41;5009946;28;1985;-67
2021/03/31 07:18:26;;;;;;;;;;;;;;;18.19;59.97;102270.19;5004252;28;1445;-59
2021/03/31 07:20:52;;;;;;;;;;;;;;;18.20;59.94;102279.94;5010130;28;1419;-59
2021/03/31 07:23:19;;;;;;;;;;;;;;;18.26;59.27;102284.06;5009397;28;1265;-59
2021/03/31 07:25:44;;;;;;;;;;;;;;;18.25;59.40;102277.84;5003151;28;1791;-70
2021/03/31 07:28:14;;;;;;;;;;;;;;;18.25;59.68;102277.00;5012274;28;1492;-59
2021/03/31 07:30:39;;;;;;;;;;;;;;;18.27;60.05;102281.28;5013385;28;1298;-68
2021/03/31 07:33:17;;;;;;;;;;;;;;;18.29;60.00;102278.53;5012027;28;1311;-65
2021/03/31 07:35:42;;;;;;;;;;;;;;;18.19;59.14;102283.56;5011631;28;1886;-59
2021/03/31 07:38:11;;;;;;;;;;;;;;;18.20;58.81;102285.28;5012895;28;1740;-69
2021/03/31 07:40:36;;;;;;;;;;;;;;;18.25;59.83;102285.88;5010620;28;1724;-59
2021/03/31 07:43:07;;;;;;;;;;;;;;;18.21;59.94;102265.59;5011328;28;1425;-70
2021/03/31 07:45:37;;;;;;;;;;;;;;;18.23;59.20;102271.72;5013703;28;1450;-70
2021/03/31 07:48:03;;;;;;;;;;;;;;;18.23;59.51;102260.16;5009403;28;1292;-59
2021/03/31 07:50:30;;;;;;;;;;;;;;;18.21;59.64;102254.03;5027917;28;1449;-62
2021/03/31 07:52:57;;;;;;;;;;;;;;;18.16;59.39;102270.38;5010026;28;1721;-69
2021/03/31 07:55:41;;;;;;;;;;;;;;;18.18;59.57;102257.75;5012145;28;1969;-58
2021/03/31 07:58:12;;;;;;;;;;;;;;;18.14;59.14;102264.25;5013363;28;1573;-72
2021/03/31 08:03:25;;;;;;;;;;;;;;;18.19;59.23;102246.09;5013673;28;1413;-64
2021/03/31 08:06:05;;;;;;;;;;;;;;;18.16;58.46;102262.31;5011785;28;1548;-60
2021/03/31 08:08:30;;;;;;;;;;;;;;;18.17;58.79;102260.53;5014211;28;1492;-58
2021/03/31 08:10:56;;;;;;;;;;;;;;;18.13;58.33;102256.31;5013680;28;1430;-58
2021/03/31 08:13:26;;;;;;;;;;;;;;;18.14;57.82;102248.19;5014320;28;1359;-68
2021/03/31 08:15:52;;;;;;;;;;;;;;;18.13;57.91;102235.75;5013973;28;1989;-69
2021/03/31 08:18:17;;;;;;;;;;;;;;;18.12;57.86;102239.38;5012191;28;1442;-73
2021/03/31 08:20:44;;;;;;;;;;;;;;;18.29;56.83;102230.31;5011181;28;1511;-63
2021/03/31 08:23:10;;;;;;;;;;;;;;;18.29;57.16;102244.56;5012151;28;1245;-64
2021/03/31 08:25:36;;;;;;;;;;;;;;;18.37;56.28;102243.25;5007106;28;1498;-58
2021/03/31 08:28:01;;;;;;;;;;;;;;;18.31;55.19;102235.59;5008282;28;1472;-68
2021/03/31 08:30:27;;;;;;;;;;;;;;;18.20;56.39;102234.41;5008727;28;1453;-69
2021/03/31 08:32:54;;;;;;;;;;;;;;;18.20;55.23;102237.09;5010616;28;1390;-69
2021/03/31 08:35:20;;;;;;;;;;;;;;;18.16;55.69;102216.81;5006842;28;1898;-57
2021/03/31 08:37:47;;;;;;;;;;;;;;;18.15;56.71;102211.59;5010919;28;1550;-57
2021/03/31 08:40:13;;;;;;;;;;;;;;;18.15;56.44;102212.44;4999166;28;1402;-68
2021/03/31 08:42:46;;;;;;;;;;;;;;;18.15;55.79;102204.41;4992136;28;1091;-57
2021/03/31 08:45:21;;;;;;;;;;;;;;;18.18;56.53;102214.91;4998966;28;1682;-58
2021/03/31 08:47:47;;;;;;;;;;;;;;;18.11;49.22;102205.56;5008187;28;1406;-57
2021/03/31 08:50:12;;;;;;;;;;;;;;;17.80;46.92;102207.38;5008605;28;1399;-69
2021/03/31 08:52:38;;;;;;;;;;;;;;;17.73;47.43;102211.38;5008512;28;1221;-58
2021/03/31 08:55:05;;;;;;;;;;;;;;;16.68;46.18;102200.47;5007906;28;1894;-55
2021/03/31 08:57:31;;;;;;;;;;;;;;;16.97;49.07;102212.22;5006546;28;1268;-73
2021/03/31 09:00:00;;;;;;;;;;;;;;;17.52;50.21;102193.94;5007123;28;1431;-71
2021/03/31 09:02:27;;;;;;;;;;;;;;;17.77;51.12;102202.22;5003874;28;1498;-67
2021/03/31 09:04:53;;;;;;;;;;;;;;;18.00;49.61;102182.09;5008527;28;1596;-57
2021/03/31 09:07:18;;;;;;;;;;;;;;;17.98;49.20;102196.53;5006620;28;1417;-57
2021/03/31 09:09:45;;;;;;;;;;;;;;;18.03;49.72;102194.47;5008878;28;1429;-57
2021/03/31 09:12:11;;;;;;;;;;;;;;;17.88;49.96;102175.69;5008220;28;1406;-57
2021/03/31 09:14:38;;;;;;;;;;;;;;;17.79;51.18;102173.56;5004797;28;1425;-56
2021/03/31 09:17:05;;;;;;;;;;;;;;;17.77;50.25;102179.97;5007623;28;1967;-57
2021/03/31 09:19:32;;;;;;;;;;;;;;;17.78;52.25;102182.53;5003692;28;1574;-57
2021/03/31 09:22:04;;;;;;;;;;;;;;;17.77;49.97;102175.47;5008391;28;1383;-57
2021/03/31 09:24:29;;;;;;;;;;;;;;;17.34;47.70;102172.66;5009314;28;1375;-57
2021/03/31 09:27:02;;;;;;;;;;;;;;;17.50;51.30;102161.91;5011029;28;1232;-57
2021/03/31 09:29:28;;;;;;;;;;;;;;;17.60;51.81;102168.44;5008874;28;1421;-69
2021/03/31 09:31:55;;;;;;;;;;;;;;;17.69;49.74;102161.69;5007832;28;1394;-57
2021/03/31 09:34:21;;;;;;;;;;;;;;;17.74;51.44;102159.56;5007021;28;1407;-69
2021/03/31 09:37:03;;;;;;;;;;;;;;;17.77;51.12;102145.19;5007227;28;1894;-57
2021/03/31 09:39:38;;;;;;;;;;;;;;;17.79;49.61;102140.59;5007112;28;1527;-57
2021/03/31 09:42:04;;;;;;;;;;;;;;;17.79;50.07;102144.13;5003781;28;821;-58
2021/03/31 09:44:31;;;;;;;;;;;;;;;17.73;51.33;102139.16;5007391;28;1334;-68
2021/03/31 09:46:56;;;;;;;;;;;;;;;17.61;50.32;102153.28;5008077;28;1483;-68
2021/03/31 09:49:23;;;;;;;;;;;;;;;17.58;49.70;102140.91;5005158;28;1570;-70
2021/03/31 09:51:48;;;;;;;;;;;;;;;17.55;49.14;102140.25;5005640;28;1646;-68
2021/03/31 09:54:14;;;;;;;;;;;;;;;17.57;49.78;102127.66;5001548;28;1327;-69
2021/03/31 09:56:39;;;;;;;;;;;;;;;17.61;49.53;102127.38;5005729;28;1946;-68
2021/03/31 09:59:04;;;;;;;;;;;;;;;17.57;48.17;102119.66;5012160;28;1392;-68
2021/03/31 10:01:30;;;;;;;;;;;;;;;17.58;47.51;102116.00;5011026;28;1383;-69
2021/03/31 10:03:57;;;;;;;;;;;;;;;17.60;49.79;102111.41;5009724;28;1450;-57
2021/03/31 10:06:26;;;;;;;;;;;;;;;17.59;49.66;102125.75;5010531;28;1251;-57
2021/03/31 10:08:53;;;;;;;;;;;;;;;17.60;48.38;102103.38;5023680;28;1538;-57
2021/03/31 10:11:25;;;;;;;;;;;;;;;17.62;50.46;102114.84;5013674;28;1416;-70
2021/03/31 10:13:51;;;;;;;;;;;;;;;17.60;50.87;102106.06;5012574;28;1442;-68
2021/03/31 10:16:16;;;;;;;;;;;;;;;17.72;48.79;102107.13;5007097;28;1930;-58
2021/03/31 10:18:42;;;;;;;;;;;;;;;17.74;48.80;102106.06;5011238;28;1470;-58
2021/03/31 10:21:07;;;;;;;;;;;;;;;17.78;47.21;102102.25;5012921;28;1662;-68
2021/03/31 10:23:34;;;;;;;;;;;;;;;17.82;48.01;102078.84;5003773;28;1570;-66
2021/03/31 10:26:18;;;;;;;;;;;;;;;17.87;47.62;102091.03;5006810;28;1664;-68
2021/03/31 10:28:44;;;;;;;;;;;;;;;17.70;44.70;102088.50;5008590;28;1441;-57
2021/03/31 10:31:23;;;;;;;;;;;;;;;17.60;42.69;102082.00;5007987;28;1554;-59
2021/03/31 10:33:49;;;;;;;;;;;;;;;17.52;42.60;102071.75;5005551;28;1507;-59
2021/03/31 10:36:35;;;;;;;;;;;;;;;17.47;41.56;102060.50;5004249;28;1894;-60
2021/03/31 10:39:41;;;;;;;;;;;;;;;17.45;39.20;102060.59;5004857;28;1570;-58
2021/03/31 10:51:19;;;;;;;;;;;;;;;17.48;41.63;102052.34;4985558;28;1533;-61
2021/03/31 10:53:36;;;;;;;;;;;;;;;17.46;42.19;102048.06;4994392;28;1284;-58
2021/03/31 10:56:03;;;;;;;;;;;;;;;17.46;38.78;102048.06;5000471;28;1914;-57
2021/03/31 10:58:28;;;;;;;;;;;;;;;17.46;40.74;102032.88;5006355;28;1446;-57
2021/03/31 11:00:54;;;;;;;;;;;;;;;17.49;40.08;102039.88;5003047;28;1472;-58
2021/03/31 11:03:20;;;;;;;;;;;;;;;17.47;40.71;102031.94;5006840;28;1491;-57
2021/03/31 11:05:45;;;;;;;;;;;;;;;17.45;40.50;102031.16;5007291;28;1476;-57
2021/03/31 11:08:10;;;;;;;;;;;;;;;17.39;38.61;102028.88;5008524;28;1730;-57
2021/03/31 11:10:35;;;;;;;;;;;;;;;17.41;40.73;102020.75;5007903;28;1779;-58
2021/03/31 11:13:01;;;;;;;;;;;;;;;17.48;40.82;102014.91;5009073;28;1653;-57
2021/03/31 11:15:26;;;;;;;;;;;;;;;17.61;41.47;102016.84;5003012;28;1946;-56
2021/03/31 11:18:06;;;;;;;;;;;;;;;17.59;40.91;102021.44;5005200;28;1568;-59
2021/03/31 11:25:57;;;;;;;;;;;;;;;16.64;38.71;102019.97;5010033;28;1595;-59
2021/03/31 11:28:22;;;;;;;;;;;;;;;16.98;39.91;102010.00;5002737;28;1516;-58
2021/03/31 11:30:49;;;;;;;;;;;;;;;16.97;39.08;101997.56;5008015;28;1132;-56
2021/03/31 11:33:14;;;;;;;;;;;;;;;16.82;38.40;101999.38;5004487;28;1641;-56
2021/03/31 11:35:40;;;;;;;;;;;;;;;16.88;39.57;101989.16;5009513;28;1898;-58
2021/03/31 11:38:05;;;;;;;;;;;;;;;16.95;37.77;101988.78;5010250;28;1447;-56
2021/03/31 11:40:30;;;;;;;;;;;;;;;17.00;39.08;101982.22;5010388;28;1584;-56
2021/03/31 11:42:56;;;;;;;;;;;;;;;16.79;38.89;101978.13;5010559;28;1546;-56
2021/03/31 11:45:21;;;;;;;;;;;;;;;16.89;40.21;101972.19;5005483;28;1299;-58
2021/03/31 11:47:47;;;;;;;;;;;;;;;17.00;41.21;101986.72;5002138;28;1564;-57
2021/03/31 11:50:12;;;;;;;;;;;;;;;17.05;39.14;101996.19;5009460;28;1515;-57
2021/03/31 11:52:38;;;;;;;;;;;;;;;16.72;38.76;101974.13;5011060;28;1387;-57
2021/03/31 11:55:04;;;;;;;;;;;;;;;16.65;39.85;101966.47;5006600;28;1946;-58
2021/03/31 11:57:30;;;;;;;;;;;;;;;16.62;39.61;101965.78;5003816;28;11090;-58
2021/03/31 11:59:55;;;;;;;;;;;;;;;16.74;39.54;101970.41;5005913;28;1516;-56
2021/03/31 12:02:20;;;;;;;;;;;;;;;16.64;39.63;101964.75;5006381;28;1549;-56
2021/03/31 12:04:46;;;;;;;;;;;;;;;16.90;40.11;101944.50;5006181;28;1649;-58
2021/03/31 12:07:13;;;;;;;;;;;;;;;17.10;41.13;101943.28;5008601;28;1578;-56
2021/03/31 12:09:41;;;;;;;;;;;;;;;17.19;40.22;101949.00;5001734;28;1609;-59
2021/03/31 12:12:11;;;;;;;;;;;;;;;17.17;40.56;101953.59;5005181;28;1450;-57
2021/03/31 12:14:37;;;;;;;;;;;;;;;17.20;38.52;101945.41;5008580;28;1511;-57
2021/03/31 12:17:03;;;;;;;;;;;;;;;17.23;38.96;101932.72;5009225;28;1980;-57
2021/03/31 12:19:28;;;;;;;;;;;;;;;17.23;38.09;101931.84;5002107;28;1524;-57
2021/03/31 12:21:54;;;;;;;;;;;;;;;16.89;40.47;101931.22;4998657;28;801;-58
2021/03/31 12:24:20;;;;;;;;;;;;;;;16.91;39.70;101932.03;5005401;28;1464;-59
2021/03/31 12:26:45;;;;;;;;;;;;;;;16.94;39.46;101923.81;5005024;28;1252;-59
2021/03/31 12:29:10;;;;;;;;;;;;;;;17.21;39.76;101915.91;4999632;28;1513;-60
2021/03/31 12:31:36;;;;;;;;;;;;;;;17.13;39.60;101906.63;4994822;28;1652;-60
2021/03/31 12:34:02;;;;;;;;;;;;;;;16.74;39.40;101900.09;5007642;28;1428;-57
2021/03/31 12:36:28;;;;;;;;;;;;;;;16.91;39.85;101899.97;5003286;28;1961;-59
2021/03/31 12:38:54;;;;;;;;;;;;;;;16.74;38.68;101895.59;5006364;28;1399;-60
2021/03/31 12:41:19;;;;;;;;;;;;;;;16.94;39.84;101891.75;5004625;28;1449;-60
2021/03/31 12:43:44;;;;;;;;;;;;;;;16.98;41.00;101887.94;5004339;28;1519;-57
2021/03/31 12:46:10;;;;;;;;;;;;;;;16.56;39.27;101886.91;5009127;28;1531;-60
2021/03/31 12:48:35;;;;;;;;;;;;;;;16.74;39.20;101879.59;5001096;28;1573;-57
2021/03/31 12:51:04;;;;;;;;;;;;;;;16.70;39.56;101881.56;5000531;28;1021;-56
2021/03/31 12:53:43;;;;;;;;;;;;;;;17.00;40.32;101859.28;5007017;28;1477;-59
2021/03/31 12:56:08;;;;;;;;;;;;;;;17.18;39.18;101867.13;5006599;28;1940;-57
2021/03/31 12:58:40;;;;;;;;;;;;;;;17.25;39.95;101872.00;5009029;28;1465;-59
2021/03/31 13:01:13;;;;;;;;;;;;;;;16.94;40.27;101859.69;5005050;28;1539;-61
2021/03/31 13:03:39;;;;;;;;;;;;;;;16.92;39.73;101855.41;5006917;28;1470;-60
2021/03/31 13:06:04;;;;;;;;;;;;;;;17.04;40.20;101859.97;5001449;28;1304;-60
2021/03/31 13:08:30;;;;;;;;;;;;;;;17.20;40.08;101835.81;5005797;28;1411;-59
2021/03/31 13:10:55;;;;;;;;;;;;;;;17.17;39.44;101838.66;5002412;28;1456;-57